Terminal Aerodrome Forecast
Issued by NWS Northern Indiana

Home | Current Version | Previous Version | Graphics & Text | Print | Product List | Glossary On
Versions: 1 2 3 4 5 6 7 8 9 10 11 12 13 14
000
FTUS43 KIWX 241400 AAA
TAFFWA
TAF AMD
KFWA 241453Z 2415/2512 23017G31KT P6SM VCSH SCT012 OVC025
     FM241600 24025G40KT 6SM BR VCSH OVC015
     FM250000 24020G31KT P6SM OVC020
     FM250600 25014G20KT P6SM OVC025=

USA.gov is the U.S. government's official web portal to all federal, state and local government web resources and services.